Terminal Aerodrome Forecast
Issued by NWS

Home | Current Version | Previous Version | Text Only | Print | Product List | Glossary On
Versions: 1 2 3 4 5 6 7 8 9 10 11 12 13 14 15 16 17 18 19 20 21 22 23 24 25 26
000
FTUS46 KHNX 180522
TAFBFL
TAF
KBFL 180522Z 1806/1906 34006KT 1SM BR BKN003
     FM181200 VRB03KT 1/2SM FG VV002
     FM181700 VRB04KT 1SM BR BKN005
     FM181900 VRB04KT 3SM HZ SCT008 BKN200
     FM190000 33005KT 4SM HZ OVC250=

USA.gov is the U.S. government's official web portal to all federal, state and local government web resources and services.